Time;durP1;ratioP1;P1;durP2;ratioP2;P2;SDS_P1;SDS_P2;PMS_P1;PMS_P2;Temp;Humidity;BMP_temperature;BMP_pressure;BME280_temperature;BME280_humidity;BME280_pressure;Samples;Min_cycle;Max_cycle;Signal;HPM_P1;HPM_P2
2022/03/23 00:02:26;;;;;;;3.45;1.80;;;23.20;49.30;;;;;;5085806;28;20036;-38
2022/03/23 00:04:54;;;;;;;2.40;1.75;;;23.20;49.30;;;;;;5086293;28;20020;-38
2022/03/23 00:07:21;;;;;;;2.60;1.80;;;23.20;49.30;;;;;;5085987;28;20021;-38
2022/03/23 00:09:48;;;;;;;3.03;1.88;;;23.20;49.40;;;;;;5084572;28;20054;-38
2022/03/23 00:12:14;;;;;;;2.53;1.80;;;23.20;49.40;;;;;;5085786;28;20051;-38
2022/03/23 00:14:40;;;;;;;2.47;1.88;;;23.20;49.50;;;;;;5086139;28;20052;-39
2022/03/23 00:17:06;;;;;;;3.63;1.95;;;23.10;49.50;;;;;;5085653;28;20084;-38
2022/03/23 00:19:33;;;;;;;2.35;2.10;;;23.10;49.50;;;;;;5085474;28;20024;-38
2022/03/23 00:21:59;;;;;;;3.10;1.88;;;23.10;49.50;;;;;;5085818;28;20091;-38
2022/03/23 00:24:25;;;;;;;2.75;1.83;;;23.10;49.60;;;;;;5088647;28;20079;-38
2022/03/23 00:26:52;;;;;;;1.98;1.70;;;23.10;49.50;;;;;;5065261;28;20049;-38
2022/03/23 00:29:18;;;;;;;3.20;1.88;;;23.10;49.50;;;;;;5065889;28;20033;-38
2022/03/23 00:31:44;;;;;;;2.55;1.83;;;23.10;49.50;;;;;;5065270;28;20071;-41
2022/03/23 00:34:10;;;;;;;2.83;1.92;;;23.10;49.50;;;;;;5084614;28;20096;-38
2022/03/23 00:36:36;;;;;;;2.22;1.48;;;23.10;49.40;;;;;;5085620;28;20032;-38
2022/03/23 00:39:02;;;;;;;3.28;1.90;;;23.10;49.40;;;;;;5078746;28;20021;-38
2022/03/23 00:41:28;;;;;;;3.03;1.98;;;23.10;49.40;;;;;;5078424;28;20023;-38
2022/03/23 00:43:55;;;;;;;2.00;1.70;;;23.10;49.40;;;;;;5085565;28;20063;-38
2022/03/23 00:46:23;;;;;;;2.22;1.60;;;23.10;49.50;;;;;;5085088;28;20024;-38
2022/03/23 00:48:49;;;;;;;2.90;1.90;;;23.10;49.50;;;;;;5085274;28;20040;-38
2022/03/23 00:51:15;;;;;;;1.80;1.70;;;23.10;49.50;;;;;;5085023;28;20036;-38
2022/03/23 00:53:41;;;;;;;2.50;1.88;;;23.10;49.60;;;;;;5086522;28;20039;-38
2022/03/23 00:56:07;;;;;;;2.08;1.50;;;23.10;49.60;;;;;;5085109;28;20092;-38
2022/03/23 00:58:33;;;;;;;3.20;1.98;;;23.10;49.60;;;;;;5084958;28;20033;-38
2022/03/23 01:01:00;;;;;;;2.22;1.70;;;23.10;49.60;;;;;;5068972;28;20056;-38
2022/03/23 01:03:26;;;;;;;2.20;1.80;;;23.00;49.50;;;;;;5084298;28;20111;-38
2022/03/23 01:05:52;;;;;;;2.25;1.67;;;23.00;49.50;;;;;;5085029;28;20067;-38
2022/03/23 01:08:18;;;;;;;2.55;1.65;;;23.00;49.50;;;;;;5083520;28;20758;-38
2022/03/23 01:10:44;;;;;;;1.98;1.55;;;23.10;49.60;;;;;;5084335;28;20028;-38
2022/03/23 01:13:10;;;;;;;2.13;1.42;;;23.00;49.50;;;;;;5084694;28;20031;-38
2022/03/23 01:15:36;;;;;;;1.98;1.60;;;23.00;49.50;;;;;;5084688;28;20097;-37
2022/03/23 01:18:03;;;;;;;2.33;1.60;;;23.00;49.50;;;;;;5084576;28;20032;-38
2022/03/23 01:20:30;;;;;;;3.67;2.25;;;23.00;49.50;;;;;;5066561;28;20033;-38
2022/03/23 01:22:56;;;;;;;3.00;2.10;;;23.00;49.60;;;;;;5084528;28;20032;-38
2022/03/23 01:25:23;;;;;;;2.58;1.90;;;23.00;49.60;;;;;;5084694;28;20019;-38
2022/03/23 01:27:49;;;;;;;2.27;1.60;;;23.00;49.60;;;;;;5084172;28;20055;-38
2022/03/23 01:30:16;;;;;;;2.15;1.48;;;23.00;49.60;;;;;;5084101;28;20284;-38
2022/03/23 01:32:43;;;;;;;1.88;1.50;;;23.00;49.70;;;;;;5084117;28;20374;-38
2022/03/23 01:35:10;;;;;;;1.90;1.40;;;23.00;49.70;;;;;;5084488;28;20055;-38
2022/03/23 01:37:36;;;;;;;2.25;1.80;;;23.00;49.70;;;;;;5083882;28;20028;-38
2022/03/23 01:40:07;;;;;;;2.10;1.75;;;22.90;49.60;;;;;;5086532;28;20037;-38
2022/03/23 01:42:33;;;;;;;1.67;1.38;;;22.90;49.60;;;;;;5083828;28;20032;-38
2022/03/23 01:44:59;;;;;;;2.70;1.70;;;22.90;49.70;;;;;;5069897;28;20032;-38
2022/03/23 01:47:26;;;;;;;1.60;1.40;;;22.90;49.60;;;;;;5082032;28;20029;-38
2022/03/23 01:49:53;;;;;;;2.03;1.38;;;22.90;49.60;;;;;;5084147;28;20055;-38
2022/03/23 01:52:21;;;;;;;2.75;1.63;;;22.90;49.60;;;;;;5083947;28;20036;-38
2022/03/23 01:54:48;;;;;;;3.25;1.60;;;22.90;49.60;;;;;;5082675;28;20508;-38
2022/03/23 01:57:15;;;;;;;2.92;1.75;;;22.90;49.60;;;;;;5083792;28;20044;-38
2022/03/23 01:59:41;;;;;;;3.08;1.55;;;22.90;49.60;;;;;;5083934;28;20036;-38
2022/03/23 02:02:08;;;;;;;2.25;1.50;;;22.90;49.70;;;;;;5083814;28;20086;-38
2022/03/23 02:04:34;;;;;;;2.38;1.50;;;22.80;49.50;;;;;;5083624;28;20085;-38
2022/03/23 02:07:01;;;;;;;2.10;1.25;;;22.80;49.50;;;;;;5083807;28;20564;-38
2022/03/23 02:09:27;;;;;;;3.42;1.73;;;22.80;49.50;;;;;;5082542;28;20029;-38
2022/03/23 02:11:54;;;;;;;1.90;1.40;;;22.80;49.50;;;;;;5065352;28;20096;-38
2022/03/23 02:14:20;;;;;;;2.17;1.38;;;22.80;49.40;;;;;;5083548;28;20079;-38
2022/03/23 02:16:48;;;;;;;2.83;1.40;;;22.80;49.40;;;;;;5082546;28;20040;-38
2022/03/23 02:19:14;;;;;;;2.78;1.40;;;22.80;49.40;;;;;;5083292;28;20017;-38
2022/03/23 02:21:58;;;;;;;2.95;1.50;;;22.80;49.40;;;;;;5083597;28;20064;-38
2022/03/23 02:24:26;;;;;;;1.83;1.50;;;22.80;49.40;;;;;;5090727;28;20131;-38
2022/03/23 02:26:52;;;;;;;2.47;1.52;;;22.80;49.30;;;;;;5082759;28;20059;-38
2022/03/23 02:29:19;;;;;;;2.20;1.60;;;22.70;49.20;;;;;;5082090;28;20028;-38
2022/03/23 02:31:46;;;;;;;1.58;1.20;;;22.70;49.20;;;;;;5083028;28;20063;-38
2022/03/23 02:34:12;;;;;;;1.80;1.50;;;22.70;49.20;;;;;;5083271;28;20029;-38
2022/03/23 02:36:38;;;;;;;2.45;1.45;;;22.70;49.10;;;;;;5082737;28;20020;-38
2022/03/23 02:39:04;;;;;;;1.90;1.40;;;22.70;49.00;;;;;;5081765;28;20026;-38
2022/03/23 02:41:31;;;;;;;2.10;1.27;;;22.70;49.00;;;;;;5082944;28;20035;-38
2022/03/23 02:43:57;;;;;;;1.73;1.27;;;22.70;49.00;;;;;;5082922;28;20445;-38
2022/03/23 02:46:23;;;;;;;2.57;1.57;;;22.70;49.00;;;;;;5082617;28;20025;-42
2022/03/23 02:48:52;;;;;;;1.77;1.50;;;22.70;49.00;;;;;;5082868;28;20264;-38
2022/03/23 02:51:19;;;;;;;1.98;1.40;;;22.70;49.00;;;;;;5083079;28;20143;-38
2022/03/23 03:02:26;;;;;;;2.40;1.25;;;22.60;48.90;;;;;;5098803;28;20119;-38
2022/03/23 03:04:53;;;;;;;2.00;1.20;;;22.60;49.10;;;;;;5082424;28;20025;-38
2022/03/23 03:07:19;;;;;;;1.65;1.20;;;22.60;49.10;;;;;;5082318;28;20055;-38
2022/03/23 03:09:45;;;;;;;1.58;1.35;;;22.60;49.10;;;;;;5069983;28;20041;-38
2022/03/23 03:12:11;;;;;;;1.90;1.25;;;22.60;49.20;;;;;;5081653;28;20074;-38
2022/03/23 03:14:41;;;;;;;1.80;1.23;;;22.60;49.20;;;;;;5082507;28;20031;-38
2022/03/23 03:17:07;;;;;;;2.10;1.13;;;22.60;49.20;;;;;;5081745;28;20028;-38
2022/03/23 03:19:37;;;;;;;2.50;1.30;;;22.60;49.30;;;;;;5082753;28;20052;-38
2022/03/23 03:22:04;;;;;;;2.65;1.10;;;22.60;49.30;;;;;;5082174;28;20050;-38
2022/03/23 03:24:30;;;;;;;2.10;1.30;;;22.60;49.30;;;;;;5082134;28;20760;-38
2022/03/23 03:26:57;;;;;;;1.77;1.20;;;22.60;49.20;;;;;;5081674;28;20056;-38
2022/03/23 03:29:23;;;;;;;1.92;1.20;;;22.50;49.10;;;;;;5082571;28;20091;-38
2022/03/23 03:31:50;;;;;;;1.73;1.37;;;22.50;49.10;;;;;;5082560;28;20036;-38
2022/03/23 03:34:16;;;;;;;1.95;1.30;;;22.50;49.00;;;;;;5080651;28;20025;-38
2022/03/23 03:36:42;;;;;;;2.33;1.30;;;22.50;49.20;;;;;;5081925;28;20059;-38
2022/03/23 03:39:08;;;;;;;1.90;1.30;;;22.50;49.00;;;;;;5073737;28;20036;-38
2022/03/23 03:41:35;;;;;;;2.13;1.10;;;22.50;49.00;;;;;;5076296;28;20031;-38
2022/03/23 03:44:01;;;;;;;2.15;1.30;;;22.50;49.00;;;;;;5082260;28;20082;-38
2022/03/23 03:46:28;;;;;;;2.95;1.27;;;22.50;49.10;;;;;;5081775;28;20062;-38
2022/03/23 03:48:54;;;;;;;1.63;1.08;;;22.50;49.30;;;;;;5081946;28;20091;-38
2022/03/23 03:51:21;;;;;;;1.77;1.20;;;22.50;49.30;;;;;;5082356;28;20028;-38
2022/03/23 03:53:47;;;;;;;2.90;1.30;;;22.50;49.30;;;;;;5082172;28;20048;-38
2022/03/23 03:56:14;;;;;;;1.58;1.17;;;22.50;49.30;;;;;;5080895;28;20041;-38
2022/03/23 03:58:40;;;;;;;2.13;1.20;;;22.50;49.40;;;;;;5062566;28;20770;-37
2022/03/23 04:01:06;;;;;;;3.35;1.35;;;22.50;49.40;;;;;;5062288;28;20036;-38
2022/03/23 04:03:34;;;;;;;1.65;1.10;;;22.40;49.30;;;;;;5075751;28;20025;-37
2022/03/23 04:06:00;;;;;;;2.28;1.40;;;22.40;49.20;;;;;;5082159;28;20131;-38
2022/03/23 04:08:26;;;;;;;1.13;1.02;;;22.40;49.20;;;;;;5079227;28;20055;-39
2022/03/23 04:10:53;;;;;;;1.60;1.20;;;22.40;49.20;;;;;;5070290;28;20028;-38
2022/03/23 04:13:19;;;;;;;2.33;1.30;;;22.40;49.20;;;;;;5081787;28;20041;-38
2022/03/23 04:15:45;;;;;;;1.35;1.20;;;22.40;49.10;;;;;;5082000;28;20029;-38
2022/03/23 04:18:11;;;;;;;1.25;1.10;;;22.40;49.30;;;;;;5081314;28;20039;-38
2022/03/23 04:20:37;;;;;;;1.65;1.10;;;22.40;49.20;;;;;;5081959;28;20024;-38
2022/03/23 04:23:03;;;;;;;2.13;1.20;;;22.40;49.30;;;;;;5081832;28;20025;-38
2022/03/23 04:25:29;;;;;;;2.33;1.05;;;22.40;49.40;;;;;;5081903;28;20028;-38
2022/03/23 04:27:56;;;;;;;1.98;1.25;;;22.30;49.40;;;;;;5083973;28;20051;-38
2022/03/23 04:30:23;;;;;;;;;;;22.40;49.60;;;;;;5082458;28;20020;-38
2022/03/23 04:32:50;;;;;;;1.88;1.17;;;22.30;49.50;;;;;;5081640;28;19923;-38
2022/03/23 04:35:16;;;;;;;2.53;1.40;;;22.40;49.60;;;;;;5081641;28;20060;-37
2022/03/23 04:37:43;;;;;;;2.77;1.20;;;22.30;49.60;;;;;;5083297;28;20035;-38
2022/03/23 04:40:11;;;;;;;1.77;1.20;;;22.30;49.70;;;;;;5084382;28;20297;-38
2022/03/23 04:42:38;;;;;;;2.08;1.10;;;22.30;49.50;;;;;;5085100;28;20032;-38
2022/03/23 04:45:05;;;;;;;2.35;1.17;;;22.30;49.50;;;;;;5085501;28;20108;-38
2022/03/23 04:47:33;;;;;;;2.17;1.20;;;22.30;49.60;;;;;;5084812;28;20036;-38
2022/03/23 04:50:00;;;;;;;2.03;1.13;;;22.30;49.50;;;;;;5085280;28;20155;-37
2022/03/23 04:52:26;;;;;;;1.90;1.20;;;22.30;49.50;;;;;;5085191;28;20047;-38
2022/03/23 04:54:56;;;;;;;2.85;1.27;;;22.30;50.10;;;;;;5085579;28;20036;-38
2022/03/23 04:57:25;;;;;;;1.98;1.20;;;22.30;49.60;;;;;;5095690;28;20036;-38
2022/03/23 04:59:51;;;;;;;3.08;1.30;;;22.30;49.60;;;;;;5085149;28;20028;-38
2022/03/23 05:02:18;;;;;;;3.47;1.45;;;22.20;49.70;;;;;;5085316;28;20084;-38
2022/03/23 05:04:44;;;;;;;1.83;1.13;;;22.20;49.70;;;;;;5085064;28;20088;-38
2022/03/23 05:07:10;;;;;;;3.17;1.33;;;22.20;49.70;;;;;;5092524;28;20422;-38
2022/03/23 05:09:36;;;;;;;3.75;1.17;;;22.30;50.30;;;;;;5092215;28;20273;-38
2022/03/23 05:12:03;;;;;;;1.60;1.10;;;22.20;49.80;;;;;;5084961;28;20044;-38
2022/03/23 05:14:29;;;;;;;2.60;1.40;;;22.20;49.80;;;;;;5084994;28;20135;-38
2022/03/23 05:16:55;;;;;;;1.90;1.10;;;22.20;50.00;;;;;;5085048;28;20031;-38
2022/03/23 05:19:21;;;;;;;3.60;1.20;;;22.20;49.80;;;;;;5084546;28;20028;-38
2022/03/23 05:21:47;;;;;;;3.30;1.30;;;22.20;49.80;;;;;;5084608;28;20055;-38
2022/03/23 05:24:13;;;;;;;1.95;1.10;;;22.20;49.80;;;;;;5084747;28;20031;-38
2022/03/23 05:26:39;;;;;;;2.22;1.05;;;22.20;49.90;;;;;;5084309;28;20056;-38
2022/03/23 05:29:06;;;;;;;2.00;1.10;;;22.20;49.80;;;;;;5083653;28;20067;-37
2022/03/23 05:31:32;;;;;;;1.83;1.10;;;22.10;49.70;;;;;;5084512;28;20029;-37
2022/03/23 05:33:58;;;;;;;2.08;1.15;;;22.20;49.80;;;;;;5084284;28;20029;-38
2022/03/23 05:36:24;;;;;;;2.38;1.23;;;22.10;49.80;;;;;;5084659;28;20060;-38
2022/03/23 05:38:50;;;;;;;3.10;0.98;;;22.20;50.00;;;;;;5082669;28;20055;-38
2022/03/23 05:41:16;;;;;;;1.80;0.85;;;22.10;50.00;;;;;;5084231;28;20035;-38
2022/03/23 05:43:42;;;;;;;1.80;1.20;;;22.10;50.10;;;;;;5084265;28;20032;-38
2022/03/23 05:46:08;;;;;;;3.10;1.20;;;22.10;50.10;;;;;;5083646;28;20032;-37
2022/03/23 05:48:34;;;;;;;2.72;1.23;;;22.10;50.20;;;;;;5083632;28;20035;-37
2022/03/23 05:51:00;;;;;;;3.20;1.20;;;22.10;50.20;;;;;;5084500;28;20024;-38
2022/03/23 05:53:26;;;;;;;3.25;1.30;;;22.10;50.20;;;;;;5084149;28;20060;-37
2022/03/23 05:55:52;;;;;;;3.80;1.05;;;22.10;50.20;;;;;;5084321;28;20029;-38
2022/03/23 05:58:18;;;;;;;2.08;1.00;;;22.10;50.20;;;;;;5083654;28;20027;-38
2022/03/23 06:00:45;;;;;;;2.20;1.20;;;22.10;50.20;;;;;;5083090;28;20028;-37
2022/03/23 06:03:11;;;;;;;1.73;0.90;;;22.10;50.10;;;;;;5083972;28;20020;-38
2022/03/23 06:05:38;;;;;;;2.55;1.10;;;22.10;50.10;;;;;;5083546;28;20406;-38
2022/03/23 06:08:04;;;;;;;1.27;0.90;;;22.10;50.10;;;;;;5083680;28;20033;-38
2022/03/23 06:10:31;;;;;;;1.70;1.00;;;22.00;50.10;;;;;;5069953;28;20025;-38
2022/03/23 06:12:57;;;;;;;1.42;0.93;;;22.00;50.10;;;;;;5083404;28;20036;-38
2022/03/23 06:15:23;;;;;;;3.83;1.10;;;22.00;50.20;;;;;;5083870;28;20021;-38
2022/03/23 06:17:49;;;;;;;3.92;1.20;;;22.00;50.30;;;;;;5083725;28;20025;-37
2022/03/23 06:20:16;;;;;;;1.52;0.90;;;22.00;50.40;;;;;;5085645;28;20044;-37
2022/03/23 06:22:42;;;;;;;1.97;1.17;;;22.00;50.40;;;;;;5083330;28;20036;-38
2022/03/23 06:25:09;;;;;;;2.38;0.90;;;22.00;50.50;;;;;;5083652;28;20272;-37
2022/03/23 06:27:35;;;;;;;1.70;1.10;;;22.00;50.50;;;;;;5081879;28;20048;-38
2022/03/23 06:30:01;;;;;;;1.63;0.90;;;22.00;50.60;;;;;;5083055;28;20694;-38
2022/03/23 06:32:28;;;;;;;3.30;1.00;;;22.00;50.70;;;;;;5083217;28;20058;-37
2022/03/23 06:34:54;;;;;;;2.10;1.00;;;22.00;50.50;;;;;;5083479;28;20293;-37
2022/03/23 06:37:20;;;;;;;2.00;0.90;;;22.00;50.50;;;;;;5083323;28;20021;-38
2022/03/23 06:39:46;;;;;;;2.08;1.00;;;21.90;50.50;;;;;;5069969;28;20041;-37
2022/03/23 06:42:12;;;;;;;3.85;1.20;;;22.00;50.50;;;;;;5082342;28;20031;-37
2022/03/23 06:44:39;;;;;;;2.20;1.20;;;22.00;50.50;;;;;;5083333;28;20017;-37
2022/03/23 06:47:05;;;;;;;2.00;0.93;;;21.90;50.50;;;;;;5083289;28;20091;-37
2022/03/23 06:49:31;;;;;;;2.70;0.90;;;21.90;50.50;;;;;;5082785;28;20024;-38
2022/03/23 06:51:57;;;;;;;2.25;1.00;;;21.90;50.60;;;;;;5082658;28;20046;-37
2022/03/23 06:54:23;;;;;;;4.13;1.23;;;21.90;50.70;;;;;;5083273;28;20446;-37
2022/03/23 06:56:51;;;;;;;3.03;0.93;;;21.90;51.40;;;;;;5091671;28;20067;-38
2022/03/23 06:59:19;;;;;;;2.28;0.93;;;21.90;51.00;;;;;;5081806;28;20027;-37
2022/03/23 07:01:45;;;;;;;3.13;1.00;;;21.90;51.10;;;;;;5082934;28;20035;-38
2022/03/23 07:04:11;;;;;;;1.95;0.85;;;21.90;51.10;;;;;;5082855;28;20075;-37
2022/03/23 07:06:37;;;;;;;2.03;0.98;;;21.90;51.20;;;;;;5083011;28;20025;-37
2022/03/23 07:11:48;;;;;;;1.33;0.70;;;21.90;51.00;;;;;;5082562;28;20047;-37
2022/03/23 07:14:14;;;;;;;2.28;1.13;;;21.90;51.00;;;;;;5082664;28;20021;-38
2022/03/23 07:16:42;;;;;;;1.80;1.10;;;21.90;51.00;;;;;;5084837;28;20581;-37
2022/03/23 07:19:09;;;;;;;2.22;1.05;;;21.80;50.90;;;;;;5082729;28;20017;-37
2022/03/23 07:21:35;;;;;;;2.20;1.08;;;21.90;51.00;;;;;;5082271;28;20024;-37
2022/03/23 07:24:02;;;;;;;1.77;1.00;;;21.80;50.90;;;;;;5082675;28;20115;-37
2022/03/23 07:26:28;;;;;;;1.88;0.90;;;21.80;50.90;;;;;;5082461;28;20051;-37
2022/03/23 07:28:56;;;;;;;2.17;1.10;;;21.80;51.00;;;;;;5064416;28;20035;-37
2022/03/23 07:31:22;;;;;;;;;;;21.80;51.00;;;;;;5082723;28;20528;-37
2022/03/23 07:33:50;;;;;;;3.00;1.20;;;21.80;51.20;;;;;;5081897;28;19908;-37
2022/03/23 07:36:16;;;;;;;3.00;1.00;;;21.80;51.40;;;;;;5082632;28;20100;-37
2022/03/23 07:38:42;;;;;;;3.03;1.15;;;21.80;51.50;;;;;;5081250;28;20028;-37
2022/03/23 07:41:08;;;;;;;2.72;0.93;;;21.80;51.60;;;;;;5082065;28;20074;-37
2022/03/23 07:43:34;;;;;;;3.53;0.90;;;21.80;51.50;;;;;;5082367;28;20088;-37
2022/03/23 07:46:00;;;;;;;3.25;1.08;;;21.80;52.10;;;;;;5082615;28;20399;-37
2022/03/23 07:48:26;;;;;;;2.08;0.95;;;21.80;51.50;;;;;;5082382;28;20127;-37
2022/03/23 07:50:52;;;;;;;2.03;1.00;;;21.80;51.40;;;;;;5082238;28;20025;-37
2022/03/23 07:53:19;;;;;;;2.05;0.98;;;21.70;51.30;;;;;;5082544;28;20032;-38
2022/03/23 07:55:45;;;;;;;2.23;0.80;;;21.70;51.30;;;;;;5082726;28;20029;-37
2022/03/23 07:58:12;;;;;;;1.95;0.95;;;21.80;51.30;;;;;;5082276;28;20103;-37
2022/03/23 08:00:38;;;;;;;2.90;0.83;;;21.70;51.30;;;;;;5081382;28;20032;-36
2022/03/23 08:03:07;;;;;;;2.63;1.20;;;21.70;51.30;;;;;;5082135;28;20020;-37
2022/03/23 08:05:33;;;;;;;3.42;1.25;;;21.70;51.40;;;;;;5082487;28;20027;-37
2022/03/23 08:07:59;;;;;;;2.33;0.93;;;21.70;51.50;;;;;;5082151;28;20054;-37
2022/03/23 08:10:25;;;;;;;4.53;1.30;;;21.70;51.60;;;;;;5080794;28;20036;-36
2022/03/23 08:12:53;;;;;;;3.20;0.95;;;21.70;51.70;;;;;;5085833;28;20040;-37
2022/03/23 08:15:19;;;;;;;;;;;21.70;51.80;;;;;;5086805;28;20027;-37
2022/03/23 08:17:45;;;;;;;2.22;1.27;;;21.70;52.40;;;;;;5086048;28;19909;-37
2022/03/23 08:23:07;;;;;;;2.70;1.00;;;21.60;51.90;;;;;;5086127;28;20034;-37
2022/03/23 08:25:34;;;;;;;2.70;1.23;;;21.70;52.00;;;;;;5086019;28;20021;-37
2022/03/23 08:28:00;;;;;;;4.70;1.30;;;21.70;51.90;;;;;;5075882;28;20052;-37
2022/03/23 08:30:26;;;;;;;1.70;1.10;;;21.70;51.80;;;;;;5065655;28;20060;-37
2022/03/23 08:32:53;;;;;;;2.90;0.90;;;21.70;51.80;;;;;;5072508;28;20036;-37
2022/03/23 08:35:19;;;;;;;3.10;1.17;;;21.70;51.80;;;;;;5086251;28;20020;-37
2022/03/23 08:37:45;;;;;;;2.72;0.90;;;21.70;51.90;;;;;;5085855;28;20029;-38
2022/03/23 08:40:12;;;;;;;2.13;0.93;;;21.70;51.80;;;;;;5084423;28;20032;-37
2022/03/23 08:42:38;;;;;;;3.78;1.10;;;21.60;51.80;;;;;;5085141;28;20031;-37
2022/03/23 08:45:05;;;;;;;2.63;1.05;;;21.60;52.00;;;;;;5085728;28;20029;-37
2022/03/23 08:47:31;;;;;;;;;;;21.60;52.20;;;;;;5089590;28;20053;-37
2022/03/23 08:49:57;;;;;;;2.80;1.10;;;21.60;52.30;;;;;;5085513;28;19909;-37
2022/03/23 08:52:24;;;;;;;3.30;1.30;;;21.60;52.80;;;;;;5085239;28;20170;-37
2022/03/23 08:54:50;;;;;;;3.35;1.00;;;21.60;52.40;;;;;;5085515;28;20477;-37
2022/03/23 08:57:16;;;;;;;3.17;0.93;;;21.60;52.50;;;;;;5085062;28;20040;-37
2022/03/23 08:59:43;;;;;;;2.47;1.30;;;21.60;52.50;;;;;;5085475;28;20054;-37
2022/03/23 09:02:09;;;;;;;2.08;0.90;;;21.60;52.50;;;;;;5085122;28;20052;-37
2022/03/23 09:04:35;;;;;;;2.75;1.25;;;21.50;52.40;;;;;;5085353;28;20025;-37
2022/03/23 09:07:01;;;;;;;2.92;1.15;;;21.60;52.40;;;;;;5085453;28;20025;-37
2022/03/23 09:09:27;;;;;;;3.20;0.98;;;21.60;52.30;;;;;;5074731;28;20039;-37
2022/03/23 09:11:53;;;;;;;2.38;1.05;;;21.60;52.30;;;;;;5081148;28;20062;-37
2022/03/23 09:14:22;;;;;;;2.20;0.90;;;21.60;52.30;;;;;;5085059;28;20029;-37
2022/03/23 09:16:48;;;;;;;2.05;0.80;;;21.60;52.30;;;;;;5084814;28;20025;-37
2022/03/23 09:19:19;;;;;;;2.00;0.80;;;21.60;52.40;;;;;;5093511;28;20111;-37
2022/03/23 09:21:47;;;;;;;2.65;1.10;;;21.50;52.30;;;;;;5105007;28;20439;-37
2022/03/23 09:24:13;;;;;;;2.55;1.00;;;21.50;52.50;;;;;;5104641;28;20114;-37
2022/03/23 09:26:39;;;;;;;2.00;0.87;;;21.50;52.50;;;;;;5104073;28;20040;-37
2022/03/23 09:29:07;;;;;;;2.42;1.20;;;21.50;52.60;;;;;;5084808;28;20035;-37
2022/03/23 09:31:34;;;;;;;2.17;1.00;;;21.50;52.70;;;;;;5084493;28;20036;-38
2022/03/23 09:34:02;;;;;;;2.80;1.00;;;21.50;52.70;;;;;;5084685;28;20029;-37
2022/03/23 09:39:16;;;;;;;2.78;0.93;;;21.50;52.70;;;;;;5072957;28;20445;-37
2022/03/23 09:41:47;;;;;;;3.58;1.27;;;21.50;52.60;;;;;;5084157;28;20040;-37
2022/03/23 09:44:13;;;;;;;2.33;1.10;;;21.50;52.50;;;;;;5084738;28;20059;-37
2022/03/23 09:46:39;;;;;;;1.90;0.77;;;21.50;52.50;;;;;;5084457;28;20033;-37
2022/03/23 09:49:06;;;;;;;2.72;0.90;;;21.50;52.50;;;;;;5084543;28;20024;-38
2022/03/23 09:51:33;;;;;;;2.55;1.00;;;21.50;52.50;;;;;;5084197;28;20040;-37
2022/03/23 09:53:59;;;;;;;;;;;21.50;52.50;;;;;;5084369;28;20033;-37
2022/03/23 09:56:25;;;;;;;2.80;1.08;;;21.50;52.50;;;;;;5083672;28;19911;-37
2022/03/23 09:58:51;;;;;;;3.00;0.90;;;21.40;52.50;;;;;;5084047;28;20050;-37
2022/03/23 10:01:41;;;;;;;3.20;1.08;;;21.40;52.60;;;;;;5084247;28;20415;-37
2022/03/23 10:04:18;;;;;;;2.78;1.27;;;21.40;52.80;;;;;;5083782;28;20021;-36
2022/03/23 10:06:59;;;;;;;1.83;0.90;;;21.40;52.80;;;;;;5084233;28;20016;-37
2022/03/23 10:09:26;;;;;;;3.00;1.13;;;21.40;52.90;;;;;;5082984;28;20025;-37
2022/03/23 10:12:29;;;;;;;2.03;1.10;;;21.40;53.00;;;;;;5083409;28;20522;-37
2022/03/23 10:15:33;;;;;;;2.50;1.10;;;21.40;53.00;;;;;;5083830;28;20033;-37
2022/03/23 10:18:17;;;;;;;2.67;0.95;;;21.40;52.90;;;;;;5083899;28;20024;-37
2022/03/23 10:20:43;;;;;;;2.20;1.10;;;21.40;52.90;;;;;;5083768;28;20020;-37
2022/03/23 10:23:09;;;;;;;2.40;1.17;;;21.40;52.90;;;;;;5083626;28;20020;-37
2022/03/23 10:25:37;;;;;;;3.42;1.05;;;21.40;52.90;;;;;;5084918;28;20028;-37
2022/03/23 10:28:12;;;;;;;1.90;0.98;;;21.40;52.90;;;;;;5083370;28;20056;-37
2022/03/23 10:30:38;;;;;;;3.45;1.20;;;21.40;53.40;;;;;;5065858;28;20028;-37
2022/03/23 10:33:16;;;;;;;2.40;0.98;;;21.30;52.80;;;;;;5083129;28;20062;-37
2022/03/23 10:35:42;;;;;;;2.45;1.10;;;21.30;52.80;;;;;;5067328;28;20031;-37
2022/03/23 10:38:16;;;;;;;3.55;1.25;;;21.30;52.90;;;;;;5083539;28;20029;-37
2022/03/23 10:40:43;;;;;;;2.88;0.82;;;21.30;53.00;;;;;;5082754;28;20025;-37
2022/03/23 10:43:15;;;;;;;2.60;1.30;;;21.30;53.10;;;;;;5082938;28;20123;-36
2022/03/23 10:45:42;;;;;;;2.63;1.02;;;21.30;53.20;;;;;;5083289;28;20028;-36
2022/03/23 10:48:13;;;;;;;1.50;0.90;;;21.30;53.30;;;;;;5082863;28;20028;-37
2022/03/23 10:50:50;;;;;;;2.28;1.10;;;21.30;53.20;;;;;;5083527;28;20020;-37
2022/03/23 10:53:16;;;;;;;3.25;1.00;;;21.30;53.20;;;;;;5082921;28;20045;-37
2022/03/23 10:55:48;;;;;;;2.85;1.00;;;21.30;53.10;;;;;;5086080;28;20024;-37
2022/03/23 10:58:14;;;;;;;1.60;0.88;;;21.30;53.10;;;;;;5082934;28;20031;-37
2022/03/23 11:00:40;;;;;;;2.30;1.30;;;21.30;53.20;;;;;;5082836;28;20564;-37
2022/03/23 11:03:08;;;;;;;2.30;1.13;;;21.30;53.10;;;;;;5082415;28;20042;-37
2022/03/23 11:05:42;;;;;;;3.15;1.20;;;21.30;53.20;;;;;;5082693;28;20089;-37
2022/03/23 11:08:10;;;;;;;2.47;1.15;;;21.20;53.10;;;;;;5083039;28;20047;-37
2022/03/23 11:16:10;;;;;;;2.05;1.00;;;21.20;53.20;;;;;;5066387;28;19961;-37
2022/03/23 11:18:36;;;;;;;4.13;1.30;;;21.20;53.40;;;;;;5082852;28;20025;-37
2022/03/23 11:21:02;;;;;;;1.88;1.27;;;21.20;53.40;;;;;;5064648;28;20084;-38
2022/03/23 11:23:37;;;;;;;2.88;1.10;;;21.20;53.50;;;;;;5082721;28;20021;-37
2022/03/23 11:26:09;;;;;;;2.88;1.33;;;21.20;53.40;;;;;;5082205;28;20114;-38
2022/03/23 11:28:40;;;;;;;2.45;1.30;;;21.20;53.40;;;;;;5082021;28;20028;-38
2022/03/23 11:31:08;;;;;;;2.05;1.00;;;21.20;53.90;;;;;;5082623;28;20020;-37
2022/03/23 11:33:34;;;;;;;2.22;0.90;;;21.20;53.40;;;;;;5082113;28;20111;-37
2022/03/23 11:36:01;;;;;;;2.53;0.80;;;21.20;53.30;;;;;;5082885;28;20118;-37
2022/03/23 11:38:27;;;;;;;2.53;1.08;;;21.20;53.30;;;;;;5080793;28;20127;-37
2022/03/23 11:40:54;;;;;;;1.50;1.00;;;21.20;53.30;;;;;;5075922;28;20032;-37
2022/03/23 11:43:26;;;;;;;3.08;1.20;;;21.20;53.40;;;;;;5064715;28;20032;-37
2022/03/23 11:45:53;;;;;;;1.95;0.98;;;21.20;53.30;;;;;;5082239;28;20040;-36
2022/03/23 11:48:22;;;;;;;1.80;1.08;;;21.20;53.30;;;;;;5081857;28;20031;-39
2022/03/23 11:50:56;;;;;;;2.55;1.20;;;21.20;53.40;;;;;;5082709;28;20034;-38
2022/03/23 11:53:44;;;;;;;1.90;1.08;;;21.20;53.50;;;;;;5082097;28;20040;-38
2022/03/23 11:56:10;;;;;;;2.83;1.40;;;21.10;53.50;;;;;;5082657;28;20035;-37
2022/03/23 11:58:37;;;;;;;2.05;0.80;;;21.10;53.60;;;;;;5064352;28;20258;-38
2022/03/23 12:01:11;;;;;;;2.83;1.13;;;21.10;53.60;;;;;;5082415;28;20029;-37
2022/03/23 12:03:41;;;;;;;2.35;0.90;;;21.10;53.70;;;;;;5082120;28;20028;-38
2022/03/23 12:06:12;;;;;;;3.03;1.27;;;21.10;53.70;;;;;;5082290;28;20048;-38
2022/03/23 12:09:32;;;;;;;1.70;0.95;;;21.10;53.60;;;;;;5080331;28;20028;-37
2022/03/23 12:11:58;;;;;;;3.05;1.00;;;21.10;53.70;;;;;;4999503;28;20042;-37
2022/03/23 12:14:34;;;;;;;1.67;0.90;;;21.10;53.60;;;;;;4999686;28;20030;-37
2022/03/23 12:17:01;;;;;;;2.42;1.00;;;21.10;53.60;;;;;;5000386;28;20043;-37
2022/03/23 12:19:30;;;;;;;3.53;1.10;;;21.10;53.70;;;;;;5000014;28;20665;-38
2022/03/23 12:21:58;;;;;;;2.38;1.00;;;21.10;53.70;;;;;;5000285;28;20054;-38
2022/03/23 12:24:52;;;;;;;3.25;1.15;;;21.10;53.70;;;;;;5000003;28;20026;-38
2022/03/23 12:27:32;;;;;;;3.05;1.30;;;21.10;53.80;;;;;;4999993;28;20550;-37
2022/03/23 12:29:59;;;;;;;2.00;1.08;;;21.10;53.90;;;;;;4999327;28;20030;-37
2022/03/23 12:32:38;;;;;;;3.92;1.02;;;21.10;54.00;;;;;;4967684;28;20062;-40
2022/03/23 12:35:04;;;;;;;1.80;0.88;;;21.10;54.00;;;;;;4999634;28;20052;-37
2022/03/23 12:37:43;;;;;;;2.53;1.20;;;21.10;54.10;;;;;;4999915;28;20796;-38
2022/03/23 12:40:13;;;;;;;2.33;1.13;;;21.10;54.10;;;;;;4985009;28;20118;-38
2022/03/23 12:42:43;;;;;;;1.92;1.02;;;21.10;54.10;;;;;;5000207;28;20054;-38
2022/03/23 12:45:19;;;;;;;2.20;1.38;;;21.00;54.00;;;;;;5023476;28;20047;-37
2022/03/23 12:57:49;;;;;;;2.28;1.00;;;21.00;54.10;;;;;;5081942;28;20028;-37
2022/03/23 12:59:16;;;;;;;1.88;1.02;;;21.00;54.00;;;;;;5066127;28;20710;-37
2022/03/23 13:01:43;;;;;;;3.17;1.08;;;21.00;54.10;;;;;;5065089;28;20100;-37
2022/03/23 13:04:09;;;;;;;1.83;0.93;;;21.00;54.20;;;;;;5047323;28;20048;-37
2022/03/23 13:06:36;;;;;;;2.45;1.20;;;21.00;54.20;;;;;;5047365;28;20029;-38
2022/03/23 13:09:08;;;;;;;1.73;1.27;;;21.00;54.20;;;;;;5063579;28;20823;-38
2022/03/23 13:11:35;;;;;;;2.42;0.85;;;21.00;54.30;;;;;;5069885;28;20031;-38
2022/03/23 13:14:01;;;;;;;1.73;0.85;;;21.00;54.30;;;;;;5081722;28;20370;-38
2022/03/23 13:16:30;;;;;;;2.50;1.20;;;21.00;54.30;;;;;;5064982;28;20033;-38
2022/03/23 13:18:58;;;;;;;1.67;0.77;;;21.00;54.90;;;;;;5065102;28;20065;-37
2022/03/23 13:21:25;;;;;;;1.80;0.80;;;21.00;54.40;;;;;;5064283;28;20028;-37
2022/03/23 13:23:52;;;;;;;;;;;21.00;54.30;;;;;;5064823;28;20028;-37